sensor_id;sensor_type;location;lat;lon;timestamp;pressure;altitude;pressure_sealevel;temperature;humidity
71772;BME280;59606;52.138;5.424;2022-11-15T00:00:54;101011.44;;;6.03;98.10
71772;BME280;59606;52.138;5.424;2022-11-15T00:03:23;101007.97;;;6.04;98.46
71772;BME280;59606;52.138;5.424;2022-11-15T00:05:49;101001.94;;;6.03;98.78
71772;BME280;59606;52.138;5.424;2022-11-15T00:08:16;101006.22;;;6.04;98.79
71772;BME280;59606;52.138;5.424;2022-11-15T00:10:46;101019.09;;;6.06;98.42
71772;BME280;59606;52.138;5.424;2022-11-15T00:13:19;101018.19;;;6.07;98.93
71772;BME280;59606;52.138;5.424;2022-11-15T00:15:46;101013.91;;;6.07;98.88
71772;BME280;59606;52.138;5.424;2022-11-15T00:18:13;101009.56;;;6.08;99.08
71772;BME280;59606;52.138;5.424;2022-11-15T00:20:40;101000.06;;;6.08;99.17
71772;BME280;59606;52.138;5.424;2022-11-15T00:23:06;101002.56;;;6.10;99.26
71772;BME280;59606;52.138;5.424;2022-11-15T00:25:33;100992.19;;;6.11;99.48
71772;BME280;59606;52.138;5.424;2022-11-15T00:28:00;100993.88;;;6.12;99.84
71772;BME280;59606;52.138;5.424;2022-11-15T00:30:27;100990.38;;;6.13;99.95
71772;BME280;59606;52.138;5.424;2022-11-15T00:32:54;100987.75;;;6.15;99.88
71772;BME280;59606;52.138;5.424;2022-11-15T00:35:21;100992.88;;;6.17;99.96
71772;BME280;59606;52.138;5.424;2022-11-15T00:37:48;100998.00;;;6.18;100.00
71772;BME280;59606;52.138;5.424;2022-11-15T00:40:15;100996.25;;;6.19;100.00
71772;BME280;59606;52.138;5.424;2022-11-15T00:42:41;100989.34;;;6.19;100.00
71772;BME280;59606;52.138;5.424;2022-11-15T00:45:08;101001.34;;;6.22;100.00
71772;BME280;59606;52.138;5.424;2022-11-15T00:47:35;101003.84;;;6.23;100.00
71772;BME280;59606;52.138;5.424;2022-11-15T00:50:02;100990.09;;;6.23;100.00
71772;BME280;59606;52.138;5.424;2022-11-15T00:52:29;101000.41;;;6.24;100.00
71772;BME280;59606;52.138;5.424;2022-11-15T00:54:55;100991.66;;;6.27;100.00
71772;BME280;59606;52.138;5.424;2022-11-15T00:57:21;100988.13;;;6.29;100.00
71772;BME280;59606;52.138;5.424;2022-11-15T00:59:48;100982.94;;;6.29;100.00
71772;BME280;59606;52.138;5.424;2022-11-15T01:02:14;100971.66;;;6.32;100.00
71772;BME280;59606;52.138;5.424;2022-11-15T01:04:41;100964.72;;;6.32;100.00
71772;BME280;59606;52.138;5.424;2022-11-15T01:07:07;100962.94;;;6.34;100.00
71772;BME280;59606;52.138;5.424;2022-11-15T01:09:33;100958.63;;;6.35;100.00
71772;BME280;59606;52.138;5.424;2022-11-15T01:12:00;100964.56;;;6.37;100.00
71772;BME280;59606;52.138;5.424;2022-11-15T01:14:26;100962.78;;;6.39;100.00
71772;BME280;59606;52.138;5.424;2022-11-15T01:16:53;100971.34;;;6.41;100.00
71772;BME280;59606;52.138;5.424;2022-11-15T01:19:19;100959.25;;;6.42;100.00
71772;BME280;59606;52.138;5.424;2022-11-15T01:21:49;100962.59;;;6.44;100.00
71772;BME280;59606;52.138;5.424;2022-11-15T01:24:15;100948.72;;;6.46;100.00
71772;BME280;59606;52.138;5.424;2022-11-15T01:26:42;100951.25;;;6.48;100.00
71772;BME280;59606;52.138;5.424;2022-11-15T01:29:08;100942.53;;;6.50;100.00
71772;BME280;59606;52.138;5.424;2022-11-15T01:31:35;100949.31;;;6.54;100.00
71772;BME280;59606;52.138;5.424;2022-11-15T01:34:01;100949.19;;;6.57;100.00
71772;BME280;59606;52.138;5.424;2022-11-15T01:36:28;100941.34;;;6.59;100.00
71772;BME280;59606;52.138;5.424;2022-11-15T01:38:56;100940.41;;;6.61;100.00
71772;BME280;59606;52.138;5.424;2022-11-15T01:41:26;100934.31;;;6.63;100.00
71772;BME280;59606;52.138;5.424;2022-11-15T01:43:55;100941.13;;;6.65;100.00
71772;BME280;59606;52.138;5.424;2022-11-15T01:46:29;100939.31;;;6.67;100.00
71772;BME280;59606;52.138;5.424;2022-11-15T01:49:00;100938.38;;;6.70;100.00
71772;BME280;59606;52.138;5.424;2022-11-15T01:51:30;100941.75;;;6.72;100.00
71772;BME280;59606;52.138;5.424;2022-11-15T01:54:02;100939.09;;;6.73;100.00
71772;BME280;59606;52.138;5.424;2022-11-15T01:56:35;100934.75;;;6.74;100.00
71772;BME280;59606;52.138;5.424;2022-11-15T01:59:04;100932.00;;;6.78;100.00
71772;BME280;59606;52.138;5.424;2022-11-15T02:01:33;100916.47;;;6.78;100.00
71772;BME280;59606;52.138;5.424;2022-11-15T02:04:13;100918.94;;;6.81;100.00
71772;BME280;59606;52.138;5.424;2022-11-15T02:06:40;100924.06;;;6.83;100.00
71772;BME280;59606;52.138;5.424;2022-11-15T02:09:07;100929.13;;;6.86;100.00
71772;BME280;59606;52.138;5.424;2022-11-15T02:11:34;100928.09;;;6.90;100.00
71772;BME280;59606;52.138;5.424;2022-11-15T02:14:01;100921.97;;;6.93;100.00
71772;BME280;59606;52.138;5.424;2022-11-15T02:16:47;100915.88;;;6.94;100.00
71772;BME280;59606;52.138;5.424;2022-11-15T02:25:20;100904.13;;;7.07;100.00
71772;BME280;59606;52.138;5.424;2022-11-15T02:33:11;100885.66;;;7.16;100.00
71772;BME280;59606;52.138;5.424;2022-11-15T02:38:22;100874.22;;;7.22;100.00
71772;BME280;59606;52.138;5.424;2022-11-15T02:41:02;100866.31;;;7.25;100.00
71772;BME280;59606;52.138;5.424;2022-11-15T02:43:50;100867.91;;;7.27;100.00
71772;BME280;59606;52.138;5.424;2022-11-15T02:46:43;100861.66;;;7.33;100.00
71772;BME280;59606;52.138;5.424;2022-11-15T02:49:33;100868.34;;;7.39;100.00
71772;BME280;59606;52.138;5.424;2022-11-15T02:52:00;100868.22;;;7.42;100.00
71772;BME280;59606;52.138;5.424;2022-11-15T02:54:33;100863.91;;;7.41;100.00
71772;BME280;59606;52.138;5.424;2022-11-15T02:57:03;100862.00;;;7.46;100.00
71772;BME280;59606;52.138;5.424;2022-11-15T03:02:23;100848.94;;;7.47;100.00
71772;BME280;59606;52.138;5.424;2022-11-15T03:05:01;100841.88;;;7.51;100.00
71772;BME280;59606;52.138;5.424;2022-11-15T03:10:10;100836.53;;;7.55;100.00
71772;BME280;59606;52.138;5.424;2022-11-15T03:12:46;100838.19;;;7.56;100.00
71772;BME280;59606;52.138;5.424;2022-11-15T03:15:24;100843.38;;;7.56;100.00
71772;BME280;59606;52.138;5.424;2022-11-15T03:18:03;100840.59;;;7.61;100.00
71772;BME280;59606;52.138;5.424;2022-11-15T03:20:31;100846.50;;;7.65;100.00
71772;BME280;59606;52.138;5.424;2022-11-15T03:23:09;100844.63;;;7.68;100.00
71772;BME280;59606;52.138;5.424;2022-11-15T03:25:41;100839.38;;;7.70;100.00
71772;BME280;59606;52.138;5.424;2022-11-15T03:28:13;100848.66;;;7.75;100.00
71772;BME280;59606;52.138;5.424;2022-11-15T03:30:44;100844.28;;;7.76;100.00
71772;BME280;59606;52.138;5.424;2022-11-15T03:33:12;100848.56;;;7.77;100.00
71772;BME280;59606;52.138;5.424;2022-11-15T03:35:44;100845.78;;;7.82;100.00
71772;BME280;59606;52.138;5.424;2022-11-15T03:38:19;100848.19;;;7.86;100.00
71772;BME280;59606;52.138;5.424;2022-11-15T03:40:54;100845.44;;;7.89;100.00
71772;BME280;59606;52.138;5.424;2022-11-15T03:46:16;100840.00;;;7.95;100.00
71772;BME280;59606;52.138;5.424;2022-11-15T03:48:52;100852.75;;;8.00;100.00
71772;BME280;59606;52.138;5.424;2022-11-15T03:51:21;100844.75;;;8.04;100.00
71772;BME280;59606;52.138;5.424;2022-11-15T03:53:47;100852.53;;;8.04;100.00
71772;BME280;59606;52.138;5.424;2022-11-15T03:56:14;100844.72;;;8.06;100.00
71772;BME280;59606;52.138;5.424;2022-11-15T03:58:40;100846.34;;;8.09;100.00
71772;BME280;59606;52.138;5.424;2022-11-15T04:01:07;100841.97;;;8.09;100.00
71772;BME280;59606;52.138;5.424;2022-11-15T04:03:33;100841.06;;;8.10;100.00
71772;BME280;59606;52.138;5.424;2022-11-15T04:06:00;100836.44;;;8.17;100.00
71772;BME280;59606;52.138;5.424;2022-11-15T04:08:26;100839.75;;;8.20;100.00
71772;BME280;59606;52.138;5.424;2022-11-15T04:10:53;100840.56;;;8.21;100.00
71772;BME280;59606;52.138;5.424;2022-11-15T04:13:19;100843.81;;;8.26;100.00
71772;BME280;59606;52.138;5.424;2022-11-15T04:15:46;100841.97;;;8.28;100.00
71772;BME280;59606;52.138;5.424;2022-11-15T04:18:12;100838.41;;;8.31;100.00
71772;BME280;59606;52.138;5.424;2022-11-15T04:20:39;100835.91;;;8.29;100.00
71772;BME280;59606;52.138;5.424;2022-11-15T04:23:24;100836.66;;;8.31;100.00
71772;BME280;59606;52.138;5.424;2022-11-15T04:26:14;100839.19;;;8.33;100.00
71772;BME280;59606;52.138;5.424;2022-11-15T04:28:41;100837.34;;;8.35;100.00
71772;BME280;59606;52.138;5.424;2022-11-15T04:31:27;100835.53;;;8.37;100.00
71772;BME280;59606;52.138;5.424;2022-11-15T04:33:54;100826.00;;;8.37;100.00
71772;BME280;59606;52.138;5.424;2022-11-15T04:36:21;100832.00;;;8.39;100.00
71772;BME280;59606;52.138;5.424;2022-11-15T04:39:07;100829.25;;;8.42;100.00
71772;BME280;59606;52.138;5.424;2022-11-15T04:41:33;100833.25;;;8.49;100.00
71772;BME280;59606;52.138;5.424;2022-11-15T04:44:00;100824.41;;;8.54;100.00
71772;BME280;59606;52.138;5.424;2022-11-15T04:46:27;100829.47;;;8.57;100.00
71772;BME280;59606;52.138;5.424;2022-11-15T04:48:54;100823.47;;;8.55;100.00
71772;BME280;59606;52.138;5.424;2022-11-15T04:51:24;100820.00;;;8.56;100.00
71772;BME280;59606;52.138;5.424;2022-11-15T04:53:50;100824.28;;;8.57;100.00
71772;BME280;59606;52.138;5.424;2022-11-15T04:56:17;100823.34;;;8.58;100.00
71772;BME280;59606;52.138;5.424;2022-11-15T04:58:43;100819.06;;;8.57;100.00
71772;BME280;59606;52.138;5.424;2022-11-15T05:01:11;100822.44;;;8.59;100.00
71772;BME280;59606;52.138;5.424;2022-11-15T05:03:41;100814.56;;;8.60;100.00
71772;BME280;59606;52.138;5.424;2022-11-15T05:06:26;100820.56;;;8.62;100.00
71772;BME280;59606;52.138;5.424;2022-11-15T05:08:53;100822.84;;;8.68;100.00
71772;BME280;59606;52.138;5.424;2022-11-15T05:11:20;100822.91;;;8.67;100.00
71772;BME280;59606;52.138;5.424;2022-11-15T05:13:47;100831.41;;;8.70;100.00
71772;BME280;59606;52.138;5.424;2022-11-15T05:16:13;100830.34;;;8.74;100.00
71772;BME280;59606;52.138;5.424;2022-11-15T05:18:40;100831.25;;;8.73;100.00
71772;BME280;59606;52.138;5.424;2022-11-15T05:21:09;100839.84;;;8.76;100.00
71772;BME280;59606;52.138;5.424;2022-11-15T05:23:36;100838.06;;;8.76;100.00
71772;BME280;59606;52.138;5.424;2022-11-15T05:26:04;100844.03;;;8.78;100.00
71772;BME280;59606;52.138;5.424;2022-11-15T05:28:35;100838.00;;;8.78;100.00
71772;BME280;59606;52.138;5.424;2022-11-15T05:31:04;100832.75;;;8.79;100.00
71772;BME280;59606;52.138;5.424;2022-11-15T05:33:31;100841.28;;;8.81;100.00
71772;BME280;59606;52.138;5.424;2022-11-15T05:36:07;100842.06;;;8.83;100.00
71772;BME280;59606;52.138;5.424;2022-11-15T05:38:34;100845.34;;;8.87;100.00
71772;BME280;59606;52.138;5.424;2022-11-15T05:41:01;100831.44;;;8.88;100.00
71772;BME280;59606;52.138;5.424;2022-11-15T05:43:31;100840.84;;;8.90;100.00
71772;BME280;59606;52.138;5.424;2022-11-15T05:45:59;100839.25;;;8.88;100.00
71772;BME280;59606;52.138;5.424;2022-11-15T05:48:26;100837.47;;;8.88;100.00
71772;BME280;59606;52.138;5.424;2022-11-15T05:50:53;100846.88;;;8.91;100.00
71772;BME280;59606;52.138;5.424;2022-11-15T05:53:22;100848.56;;;8.92;100.00
71772;BME280;59606;52.138;5.424;2022-11-15T05:55:49;100838.81;;;8.97;100.00
71772;BME280;59606;52.138;5.424;2022-11-15T05:58:17;100850.81;;;9.00;100.00
71772;BME280;59606;52.138;5.424;2022-11-15T06:00:44;100858.47;;;9.03;100.00
71772;BME280;59606;52.138;5.424;2022-11-15T06:03:11;100852.44;;;9.02;100.00
71772;BME280;59606;52.138;5.424;2022-11-15T06:05:37;100851.41;;;9.05;100.00
71772;BME280;59606;52.138;5.424;2022-11-15T06:08:04;100850.28;;;9.10;100.00
71772;BME280;59606;52.138;5.424;2022-11-15T06:10:30;100857.25;;;9.10;100.00
71772;BME280;59606;52.138;5.424;2022-11-15T06:13:01;100857.09;;;9.13;100.00
71772;BME280;59606;52.138;5.424;2022-11-15T06:15:28;100858.72;;;9.15;100.00
71772;BME280;59606;52.138;5.424;2022-11-15T06:17:58;100849.00;;;9.19;100.00
71772;BME280;59606;52.138;5.424;2022-11-15T06:20:26;100852.38;;;9.21;100.00
71772;BME280;59606;52.138;5.424;2022-11-15T06:23:01;100854.03;;;9.22;100.00
71772;BME280;59606;52.138;5.424;2022-11-15T06:25:29;100858.41;;;9.21;100.00
71772;BME280;59606;52.138;5.424;2022-11-15T06:27:57;100872.09;;;9.25;100.00
71772;BME280;59606;52.138;5.424;2022-11-15T06:30:25;100866.97;;;9.24;100.00
71772;BME280;59606;52.138;5.424;2022-11-15T06:32:58;100875.59;;;9.24;100.00
71772;BME280;59606;52.138;5.424;2022-11-15T06:35:24;100868.75;;;9.23;100.00
71772;BME280;59606;52.138;5.424;2022-11-15T06:37:51;100881.59;;;9.26;100.00
71772;BME280;59606;52.138;5.424;2022-11-15T06:40:17;100878.06;;;9.27;100.00
71772;BME280;59606;52.138;5.424;2022-11-15T06:42:44;100871.78;;;9.31;100.00
71772;BME280;59606;52.138;5.424;2022-11-15T06:45:10;100861.47;;;9.30;100.00
71772;BME280;59606;52.138;5.424;2022-11-15T06:47:44;100861.47;;;9.30;100.00
71772;BME280;59606;52.138;5.424;2022-11-15T06:50:11;100859.72;;;9.30;100.00
71772;BME280;59606;52.138;5.424;2022-11-15T06:52:38;100871.78;;;9.31;100.00
71772;BME280;59606;52.138;5.424;2022-11-15T06:55:05;100866.69;;;9.30;100.00
71772;BME280;59606;52.138;5.424;2022-11-15T06:57:32;100875.31;;;9.30;100.00
71772;BME280;59606;52.138;5.424;2022-11-15T06:59:58;100884.09;;;9.28;100.00
71772;BME280;59606;52.138;5.424;2022-11-15T07:02:25;100888.22;;;9.32;100.00
71772;BME280;59606;52.138;5.424;2022-11-15T07:04:51;100889.94;;;9.33;100.00
71772;BME280;59606;52.138;5.424;2022-11-15T07:07:18;100892.38;;;9.36;100.00
71772;BME280;59606;52.138;5.424;2022-11-15T07:09:44;100892.22;;;9.39;100.00
71772;BME280;59606;52.138;5.424;2022-11-15T07:12:14;100892.84;;;9.44;100.00
71772;BME280;59606;52.138;5.424;2022-11-15T07:14:40;100889.47;;;9.42;100.00
71772;BME280;59606;52.138;5.424;2022-11-15T07:17:07;100887.78;;;9.41;100.00
71772;BME280;59606;52.138;5.424;2022-11-15T07:19:33;100892.06;;;9.42;100.00
71772;BME280;59606;52.138;5.424;2022-11-15T07:22:00;100901.56;;;9.43;100.00
71772;BME280;59606;52.138;5.424;2022-11-15T07:24:26;100894.59;;;9.43;100.00
71772;BME280;59606;52.138;5.424;2022-11-15T07:26:53;100892.69;;;9.47;100.00
71772;BME280;59606;52.138;5.424;2022-11-15T07:29:20;100891.06;;;9.44;100.00
71772;BME280;59606;52.138;5.424;2022-11-15T07:31:46;100889.31;;;9.45;100.00
71772;BME280;59606;52.138;5.424;2022-11-15T07:34:13;100895.19;;;9.49;100.00
71772;BME280;59606;52.138;5.424;2022-11-15T07:36:40;100889.94;;;9.50;100.00
71772;BME280;59606;52.138;5.424;2022-11-15T07:39:06;100895.88;;;9.52;100.00
71772;BME280;59606;52.138;5.424;2022-11-15T07:41:32;100897.44;;;9.56;100.00
71772;BME280;59606;52.138;5.424;2022-11-15T07:43:59;100892.16;;;9.58;100.00
71772;BME280;59606;52.138;5.424;2022-11-15T07:46:26;100889.56;;;9.58;100.00
71772;BME280;59606;52.138;5.424;2022-11-15T07:48:52;100888.47;;;9.62;100.00
71772;BME280;59606;52.138;5.424;2022-11-15T07:51:19;100888.56;;;9.60;100.00
71772;BME280;59606;52.138;5.424;2022-11-15T07:53:46;100886.78;;;9.61;100.00
71772;BME280;59606;52.138;5.424;2022-11-15T07:56:12;100881.44;;;9.64;100.00
71772;BME280;59606;52.138;5.424;2022-11-15T07:58:39;100883.94;;;9.65;100.00
71772;BME280;59606;52.138;5.424;2022-11-15T08:01:08;100881.44;;;9.64;100.00
71772;BME280;59606;52.138;5.424;2022-11-15T08:03:35;100881.53;;;9.62;100.00
71772;BME280;59606;52.138;5.424;2022-11-15T08:06:02;100886.56;;;9.65;100.00
71772;BME280;59606;52.138;5.424;2022-11-15T08:08:29;100881.13;;;9.70;100.00
71772;BME280;59606;52.138;5.424;2022-11-15T08:10:57;100881.03;;;9.72;100.00
71772;BME280;59606;52.138;5.424;2022-11-15T08:13:24;100876.63;;;9.74;100.00
71772;BME280;59606;52.138;5.424;2022-11-15T08:15:50;100876.53;;;9.75;100.00
71772;BME280;59606;52.138;5.424;2022-11-15T08:18:23;100877.31;;;9.77;100.00
71772;BME280;59606;52.138;5.424;2022-11-15T08:20:49;100870.44;;;9.76;100.00
71772;BME280;59606;52.138;5.424;2022-11-15T08:23:16;100876.38;;;9.78;100.00
71772;BME280;59606;52.138;5.424;2022-11-15T08:25:42;100878.00;;;9.81;100.00
71772;BME280;59606;52.138;5.424;2022-11-15T08:28:10;100877.91;;;9.82;100.00
71772;BME280;59606;52.138;5.424;2022-11-15T08:30:38;100878.66;;;9.84;100.00
71772;BME280;59606;52.138;5.424;2022-11-15T08:33:11;100870.72;;;9.87;100.00
71772;BME280;59606;52.138;5.424;2022-11-15T08:35:40;100871.38;;;9.91;100.00
71772;BME280;59606;52.138;5.424;2022-11-15T08:38:06;100863.59;;;9.91;100.00
71772;BME280;59606;52.138;5.424;2022-11-15T08:40:33;100864.41;;;9.91;100.00
71772;BME280;59606;52.138;5.424;2022-11-15T08:42:59;100855.72;;;9.93;100.00
71772;BME280;59606;52.138;5.424;2022-11-15T08:45:29;100854.78;;;9.94;100.00
71772;BME280;59606;52.138;5.424;2022-11-15T08:47:56;100843.44;;;9.95;100.00
71772;BME280;59606;52.138;5.424;2022-11-15T08:50:22;100847.66;;;9.97;100.00
71772;BME280;59606;52.138;5.424;2022-11-15T08:52:51;100848.41;;;9.99;100.00
71772;BME280;59606;52.138;5.424;2022-11-15T08:55:18;100849.00;;;10.04;100.00
71772;BME280;59606;52.138;5.424;2022-11-15T08:57:48;100850.63;;;10.07;100.00
71772;BME280;59606;52.138;5.424;2022-11-15T09:00:15;100854.84;;;10.09;100.00
71772;BME280;59606;52.138;5.424;2022-11-15T09:02:41;100845.00;;;10.14;100.00
71772;BME280;59606;52.138;5.424;2022-11-15T09:05:08;100841.31;;;10.19;100.00
71772;BME280;59606;52.138;5.424;2022-11-15T09:07:35;100844.44;;;10.25;100.00
71772;BME280;59606;52.138;5.424;2022-11-15T09:10:02;100850.28;;;10.30;100.00
71772;BME280;59606;52.138;5.424;2022-11-15T09:12:28;100849.97;;;10.36;100.00
71772;BME280;59606;52.138;5.424;2022-11-15T09:14:55;100840.22;;;10.40;100.00
71772;BME280;59606;52.138;5.424;2022-11-15T09:17:21;100838.13;;;10.47;100.00
71772;BME280;59606;52.138;5.424;2022-11-15T09:19:50;100830.63;;;10.56;100.00
71772;BME280;59606;52.138;5.424;2022-11-15T09:22:17;100832.81;;;10.64;100.00
71772;BME280;59606;52.138;5.424;2022-11-15T09:24:44;100824.66;;;10.70;100.00
71772;BME280;59606;52.138;5.424;2022-11-15T09:27:10;100826.16;;;10.74;100.00
71772;BME280;59606;52.138;5.424;2022-11-15T09:29:37;100828.00;;;10.72;100.00
71772;BME280;59606;52.138;5.424;2022-11-15T09:32:03;100827.09;;;10.73;100.00
71772;BME280;59606;52.138;5.424;2022-11-15T09:34:30;100828.78;;;10.74;100.00
71772;BME280;59606;52.138;5.424;2022-11-15T09:36:56;100830.53;;;10.74;100.00
71772;BME280;59606;52.138;5.424;2022-11-15T09:39:23;100828.84;;;10.73;100.00
71772;BME280;59606;52.138;5.424;2022-11-15T09:50:15;100820.34;;;10.69;100.00
71772;BME280;59606;52.138;5.424;2022-11-15T09:52:44;100824.41;;;10.75;100.00
71772;BME280;59606;52.138;5.424;2022-11-15T09:55:12;100818.25;;;10.76;100.00
71772;BME280;59606;52.138;5.424;2022-11-15T09:57:53;100813.47;;;10.84;100.00
71772;BME280;59606;52.138;5.424;2022-11-15T10:00:40;100812.59;;;10.99;100.00
71772;BME280;59606;52.138;5.424;2022-11-15T10:05:49;100809.19;;;11.13;100.00
71772;BME280;59606;52.138;5.424;2022-11-15T10:08:37;100811.41;;;11.35;97.74
71772;BME280;59606;52.138;5.424;2022-11-15T10:11:10;100801.03;;;11.64;96.54
71772;BME280;59606;52.138;5.424;2022-11-15T10:14:01;100806.13;;;11.65;94.95
71772;BME280;59606;52.138;5.424;2022-11-15T10:19:38;100798.72;;;11.43;94.44
71772;BME280;59606;52.138;5.424;2022-11-15T10:22:31;100802.09;;;11.45;93.91
71772;BME280;59606;52.138;5.424;2022-11-15T10:27:45;100794.97;;;11.33;91.42
71772;BME280;59606;52.138;5.424;2022-11-15T10:30:16;100794.31;;;11.29;90.16
71772;BME280;59606;52.138;5.424;2022-11-15T10:32:44;100795.25;;;11.28;90.84
71772;BME280;59606;52.138;5.424;2022-11-15T10:35:27;100790.81;;;11.30;91.25
71772;BME280;59606;52.138;5.424;2022-11-15T10:38:11;100790.06;;;11.28;91.66
71772;BME280;59606;52.138;5.424;2022-11-15T10:40:39;100785.00;;;11.25;91.33
71772;BME280;59606;52.138;5.424;2022-11-15T10:45:36;100772.81;;;11.26;90.48
71772;BME280;59606;52.138;5.424;2022-11-15T10:50:41;100755.31;;;11.28;89.87
71772;BME280;59606;52.138;5.424;2022-11-15T10:53:33;100754.94;;;11.34;89.97
71772;BME280;59606;52.138;5.424;2022-11-15T10:56:08;100750.66;;;11.33;89.34
71772;BME280;59606;52.138;5.424;2022-11-15T10:58:44;100743.88;;;11.30;88.66
71772;BME280;59606;52.138;5.424;2022-11-15T11:01:21;100742.75;;;11.35;88.97
71772;BME280;59606;52.138;5.424;2022-11-15T11:04:01;100742.38;;;11.41;88.69
71772;BME280;59606;52.138;5.424;2022-11-15T11:06:28;100734.28;;;11.45;88.29
71772;BME280;59606;52.138;5.424;2022-11-15T11:09:01;100730.28;;;11.54;88.43
71772;BME280;59606;52.138;5.424;2022-11-15T11:11:44;100730.47;;;11.65;86.75
71772;BME280;59606;52.138;5.424;2022-11-15T11:14:23;100726.72;;;11.69;86.71
71772;BME280;59606;52.138;5.424;2022-11-15T11:17:04;100734.00;;;11.78;86.36
71772;BME280;59606;52.138;5.424;2022-11-15T11:22:21;100724.69;;;11.89;85.37
71772;BME280;59606;52.138;5.424;2022-11-15T11:25:27;100723.38;;;11.82;85.42
71772;BME280;59606;52.138;5.424;2022-11-15T11:28:19;100714.69;;;11.81;85.34
71772;BME280;59606;52.138;5.424;2022-11-15T11:30:59;100713.88;;;11.80;85.81
71772;BME280;59606;52.138;5.424;2022-11-15T11:36:27;100728.78;;;11.78;85.60
71772;BME280;59606;52.138;5.424;2022-11-15T11:39:24;100720.84;;;11.80;84.97
71772;BME280;59606;52.138;5.424;2022-11-15T11:42:02;100713.94;;;11.79;84.60
71772;BME280;59606;52.138;5.424;2022-11-15T11:47:22;100703.22;;;11.84;84.40
71772;BME280;59606;52.138;5.424;2022-11-15T11:49:59;100702.34;;;11.85;83.56
71772;BME280;59606;52.138;5.424;2022-11-15T11:52:35;100709.22;;;11.86;84.12
71772;BME280;59606;52.138;5.424;2022-11-15T11:55:37;100697.56;;;11.91;83.39
71772;BME280;59606;52.138;5.424;2022-11-15T12:03:43;100676.53;;;12.07;83.38
71772;BME280;59606;52.138;5.424;2022-11-15T12:06:30;100664.97;;;12.11;82.49
71772;BME280;59606;52.138;5.424;2022-11-15T12:12:11;100654.97;;;12.18;81.30
71772;BME280;59606;52.138;5.424;2022-11-15T12:14:49;100660.47;;;12.13;80.93
71772;BME280;59606;52.138;5.424;2022-11-15T12:17:22;100658.06;;;12.10;79.89
71772;BME280;59606;52.138;5.424;2022-11-15T12:19:58;100654.59;;;12.10;78.88
71772;BME280;59606;52.138;5.424;2022-11-15T12:27:54;100632.06;;;12.09;78.62
71772;BME280;59606;52.138;5.424;2022-11-15T12:30:23;100625.34;;;12.05;77.59
71772;BME280;59606;52.138;5.424;2022-11-15T12:32:59;100615.63;;;12.07;78.36
71772;BME280;59606;52.138;5.424;2022-11-15T12:35:37;100615.56;;;12.08;77.91
71772;BME280;59606;52.138;5.424;2022-11-15T12:38:09;100610.13;;;12.11;77.25
71772;BME280;59606;52.138;5.424;2022-11-15T12:40:37;100615.34;;;12.11;76.81
71772;BME280;59606;52.138;5.424;2022-11-15T12:45:42;100596.69;;;12.17;77.01
71772;BME280;59606;52.138;5.424;2022-11-15T12:50:55;100578.09;;;12.22;76.41
71772;BME280;59606;52.138;5.424;2022-11-15T12:58:50;100575.34;;;12.23;76.65
71772;BME280;59606;52.138;5.424;2022-11-15T13:06:51;100560.84;;;12.19;75.60
71772;BME280;59606;52.138;5.424;2022-11-15T13:12:01;100546.53;;;12.25;76.20
71772;BME280;59606;52.138;5.424;2022-11-15T13:19:47;100545.28;;;12.18;75.99
71772;BME280;59606;52.138;5.424;2022-11-15T13:22:14;100538.69;;;12.12;76.04
71772;BME280;59606;52.138;5.424;2022-11-15T13:25:01;100535.31;;;12.10;75.90
71772;BME280;59606;52.138;5.424;2022-11-15T13:27:28;100531.16;;;12.08;76.31
71772;BME280;59606;52.138;5.424;2022-11-15T13:29:55;100532.41;;;12.02;76.16
71772;BME280;59606;52.138;5.424;2022-11-15T13:32:21;100529.97;;;11.99;76.26
71772;BME280;59606;52.138;5.424;2022-11-15T13:34:50;100525.59;;;11.99;76.29
71772;BME280;59606;52.138;5.424;2022-11-15T13:39:49;100511.47;;;11.89;75.84
71772;BME280;59606;52.138;5.424;2022-11-15T13:42:20;100512.63;;;11.85;75.95
71772;BME280;59606;52.138;5.424;2022-11-15T13:45:02;100512.78;;;11.82;76.47
71772;BME280;59606;52.138;5.424;2022-11-15T13:47:31;100511.19;;;11.79;76.40
71772;BME280;59606;52.138;5.424;2022-11-15T13:49:58;100498.34;;;11.76;76.33
71772;BME280;59606;52.138;5.424;2022-11-15T13:52:34;100496.78;;;11.74;77.10
71772;BME280;59606;52.138;5.424;2022-11-15T13:55:21;100497.72;;;11.73;77.21
71772;BME280;59606;52.138;5.424;2022-11-15T13:57:52;100487.59;;;11.68;77.40
71772;BME280;59606;52.138;5.424;2022-11-15T14:00:41;100486.84;;;11.66;77.28
71772;BME280;59606;52.138;5.424;2022-11-15T14:08:29;100481.19;;;11.60;76.49
71772;BME280;59606;52.138;5.424;2022-11-15T14:11:17;100465.72;;;11.56;76.74
71772;BME280;59606;52.138;5.424;2022-11-15T14:16:43;100477.41;;;11.51;76.45
71772;BME280;59606;52.138;5.424;2022-11-15T14:19:34;100469.66;;;11.49;77.02
71772;BME280;59606;52.138;5.424;2022-11-15T14:22:28;100464.66;;;11.46;76.82
71772;BME280;59606;52.138;5.424;2022-11-15T14:25:17;100457.75;;;11.45;76.98
71772;BME280;59606;52.138;5.424;2022-11-15T14:28:09;100452.53;;;11.45;77.09
71772;BME280;59606;52.138;5.424;2022-11-15T14:30:35;100442.03;;;11.47;76.92
71772;BME280;59606;52.138;5.424;2022-11-15T14:33:17;100438.56;;;11.46;76.42
71772;BME280;59606;52.138;5.424;2022-11-15T14:35:44;100440.34;;;11.46;76.63
71772;BME280;59606;52.138;5.424;2022-11-15T14:38:11;100441.09;;;11.48;76.39
71772;BME280;59606;52.138;5.424;2022-11-15T14:40:37;100428.03;;;11.48;76.50
71772;BME280;59606;52.138;5.424;2022-11-15T14:43:08;100435.03;;;11.47;76.36
71772;BME280;59606;52.138;5.424;2022-11-15T14:45:34;100424.50;;;11.49;76.01
71772;BME280;59606;52.138;5.424;2022-11-15T14:48:01;100419.28;;;11.49;75.98
71772;BME280;59606;52.138;5.424;2022-11-15T14:50:27;100420.09;;;11.49;75.76